Time;durP1;ratioP1;P1;durP2;ratioP2;P2;SDS_P1;SDS_P2;PMS_P1;PMS_P2;Temp;Humidity;BMP_temperature;BMP_pressure;BME280_temperature;BME280_humidity;BME280_pressure;Samples;Min_cycle;Max_cycle;Signal;HPM_P1;HPM_P2
2024/04/21 00:02:01;;;;;;;7.28;4.40;;;4.80;99.90;;;;;;469547;252;27470;-72
2024/04/21 00:04:02;;;;;;;7.20;4.18;;;4.70;99.90;;;;;;469569;252;27455;-71
2024/04/21 00:06:03;;;;;;;6.32;4.00;;;4.80;99.90;;;;;;469536;252;27938;-72
2024/04/21 00:08:05;;;;;;;6.10;4.10;;;4.80;99.90;;;;;;469560;252;28669;-71
2024/04/21 00:10:06;;;;;;;5.75;4.80;;;4.80;99.90;;;;;;469578;252;27479;-71
2024/04/21 00:12:07;;;;;;;5.10;4.10;;;4.80;99.90;;;;;;469544;252;27463;-71
2024/04/21 00:14:08;;;;;;;7.95;4.05;;;4.70;99.90;;;;;;469539;252;27563;-71
2024/04/21 00:16:09;;;;;;;7.30;3.37;;;4.70;99.90;;;;;;469538;252;27465;-72
2024/04/21 00:18:11;;;;;;;4.15;3.40;;;4.70;99.90;;;;;;469514;252;27806;-73
2024/04/21 00:20:12;;;;;;;6.37;3.47;;;4.70;99.90;;;;;;469487;252;27427;-71
2024/04/21 00:22:13;;;;;;;6.80;3.55;;;4.60;99.90;;;;;;469456;252;27942;-71
2024/04/21 00:24:14;;;;;;;5.47;3.90;;;4.70;99.90;;;;;;469428;253;27955;-71
2024/04/21 00:26:16;;;;;;;5.53;3.40;;;4.60;99.90;;;;;;469502;252;28038;-72
2024/04/21 00:28:17;;;;;;;7.97;3.90;;;4.60;99.90;;;;;;469535;252;27488;-71
2024/04/21 00:30:18;;;;;;;4.82;3.55;;;4.70;99.90;;;;;;469496;252;27474;-71
2024/04/21 00:32:19;;;;;;;4.25;3.20;;;4.60;99.90;;;;;;469517;252;27531;-72
2024/04/21 00:34:21;;;;;;;5.30;3.67;;;4.70;99.90;;;;;;469512;252;27487;-71
2024/04/21 00:36:22;;;;;;;6.97;3.47;;;4.70;99.90;;;;;;469497;252;27438;-71
2024/04/21 00:38:23;;;;;;;4.00;3.45;;;4.60;99.90;;;;;;469535;252;27447;-72
2024/04/21 00:40:25;;;;;;;10.60;3.62;;;4.60;99.90;;;;;;469564;252;27994;-72
2024/04/21 00:42:26;;;;;;;8.73;3.75;;;4.60;99.90;;;;;;469506;252;27998;-72
2024/04/21 00:44:27;;;;;;;5.35;3.42;;;4.60;99.90;;;;;;469553;252;27562;-72
2024/04/21 00:46:28;;;;;;;3.90;2.92;;;4.60;99.90;;;;;;469535;253;27424;-72
2024/04/21 00:48:29;;;;;;;5.22;4.07;;;4.60;99.90;;;;;;469532;252;27450;-71
2024/04/21 00:50:31;;;;;;;5.72;3.30;;;4.60;99.90;;;;;;469540;252;27435;-71
2024/04/21 00:52:32;;;;;;;8.63;3.30;;;4.60;99.90;;;;;;469548;252;27467;-71
2024/04/21 00:54:33;;;;;;;6.90;4.10;;;4.60;99.90;;;;;;469581;252;27568;-73
2024/04/21 00:56:34;;;;;;;5.25;3.70;;;4.60;99.90;;;;;;469513;252;27926;-71
2024/04/21 00:58:36;;;;;;;7.00;3.95;;;4.60;99.90;;;;;;469534;252;28034;-72
2024/04/21 01:00:37;;;;;;;8.48;3.70;;;4.60;99.90;;;;;;469532;252;27947;-71
2024/04/21 01:02:38;;;;;;;6.70;3.67;;;4.60;99.90;;;;;;469523;252;27445;-72
2024/04/21 01:04:39;;;;;;;6.85;3.83;;;4.60;99.90;;;;;;469539;252;27450;-72
2024/04/21 01:06:41;;;;;;;4.25;3.35;;;4.50;99.90;;;;;;469527;252;27439;-71
2024/04/21 01:08:42;;;;;;;9.20;3.70;;;4.50;99.90;;;;;;469525;252;27466;-71
2024/04/21 01:10:43;;;;;;;6.70;3.58;;;4.50;99.90;;;;;;469527;252;27531;-73
2024/04/21 01:12:44;;;;;;;5.72;3.62;;;4.50;99.90;;;;;;469561;252;27430;-71
2024/04/21 01:14:46;;;;;;;4.70;3.95;;;4.50;99.90;;;;;;469538;252;27944;-71
2024/04/21 01:16:47;;;;;;;5.45;3.33;;;4.50;99.90;;;;;;469538;252;27874;-71
2024/04/21 01:18:48;;;;;;;5.95;3.47;;;4.50;99.90;;;;;;469542;252;28044;-71
2024/04/21 01:20:49;;;;;;;8.25;4.40;;;4.50;99.90;;;;;;469543;252;27450;-73
2024/04/21 01:22:51;;;;;;;4.37;3.33;;;4.50;99.90;;;;;;469563;252;27538;-71
2024/04/21 01:24:52;;;;;;;4.40;2.90;;;4.50;99.90;;;;;;469532;252;27455;-72
2024/04/21 01:26:53;;;;;;;7.43;3.50;;;4.50;99.90;;;;;;469530;252;27829;-71
2024/04/21 01:28:54;;;;;;;5.07;3.03;;;4.50;99.90;;;;;;469531;252;27463;-72
2024/04/21 01:30:57;;;;;;;5.43;3.75;;;4.50;99.90;;;;;;469548;252;27470;-73
2024/04/21 01:32:58;;;;;;;9.25;3.80;;;4.50;99.90;;;;;;469500;253;27969;-71
2024/04/21 01:34:58;;;;;;;3.83;3.05;;;4.50;99.90;;;;;;469483;252;28018;-72
2024/04/21 01:37:00;;;;;;;8.93;3.50;;;4.50;99.90;;;;;;469566;252;27857;-71
2024/04/21 01:39:01;;;;;;;6.35;3.10;;;4.50;99.90;;;;;;469552;253;27415;-72
2024/04/21 01:41:02;;;;;;;4.85;3.25;;;4.50;99.90;;;;;;469572;252;27458;-72
2024/04/21 01:43:03;;;;;;;6.10;3.33;;;4.50;99.90;;;;;;469576;252;27434;-71
2024/04/21 01:45:05;;;;;;;4.90;3.22;;;4.50;99.90;;;;;;469576;252;27470;-71
2024/04/21 01:47:06;;;;;;;4.62;2.70;;;4.50;99.90;;;;;;469562;252;27434;-72
2024/04/21 01:49:07;;;;;;;9.20;3.45;;;4.50;99.90;;;;;;469580;252;27439;-71
2024/04/21 01:51:08;;;;;;;7.18;3.03;;;4.50;99.90;;;;;;469604;252;28045;-72
2024/04/21 01:53:10;;;;;;;3.95;3.55;;;4.50;99.90;;;;;;469542;252;27867;-71
2024/04/21 01:55:11;;;;;;;7.45;3.22;;;4.50;99.90;;;;;;469531;252;27925;-71
2024/04/21 01:57:12;;;;;;;7.75;4.22;;;4.50;99.90;;;;;;469587;251;27452;-73
2024/04/21 01:59:13;;;;;;;1.73;1.62;;;4.30;99.90;;;;;;469568;252;27423;-72
2024/04/21 02:01:15;;;;;;;3.37;1.73;;;3.90;99.90;;;;;;469550;252;27566;-72
2024/04/21 02:03:16;;;;;;;3.30;1.85;;;3.50;99.90;;;;;;469559;252;27558;-72
2024/04/21 02:05:17;;;;;;;3.42;1.50;;;3.10;99.90;;;;;;469524;252;27527;-71
2024/04/21 02:07:18;;;;;;;5.18;2.12;;;3.10;99.90;;;;;;469527;252;27458;-72
2024/04/21 02:09:20;;;;;;;8.57;1.90;;;2.90;99.90;;;;;;469529;252;27487;-72
2024/04/21 02:11:21;;;;;;;5.35;2.30;;;2.80;99.90;;;;;;469535;252;28009;-72
2024/04/21 02:13:22;;;;;;;8.07;2.17;;;2.70;99.90;;;;;;469518;252;28117;-72
2024/04/21 02:15:23;;;;;;;3.08;2.10;;;2.70;99.90;;;;;;469533;252;27931;-72
2024/04/21 02:17:25;;;;;;;2.22;1.70;;;2.70;99.90;;;;;;469541;252;27890;-72
2024/04/21 02:19:26;;;;;;;8.50;2.12;;;2.80;99.90;;;;;;469517;252;27458;-71
2024/04/21 02:21:27;;;;;;;3.25;2.08;;;2.80;99.90;;;;;;469507;252;27468;-71
2024/04/21 02:23:28;;;;;;;3.87;1.80;;;2.80;99.90;;;;;;469556;252;27463;-72
2024/04/21 02:25:30;;;;;;;3.47;1.95;;;2.80;99.90;;;;;;469528;252;27499;-71
2024/04/21 02:27:31;;;;;;;4.43;2.03;;;2.80;99.90;;;;;;469524;252;27534;-72
2024/04/21 02:29:32;;;;;;;4.78;2.30;;;2.80;99.90;;;;;;469504;252;27434;-71
2024/04/21 02:31:33;;;;;;;6.53;2.12;;;2.80;99.90;;;;;;469517;252;27457;-71
2024/04/21 02:33:35;;;;;;;3.87;2.08;;;2.90;99.90;;;;;;469529;252;27455;-72
2024/04/21 02:35:36;;;;;;;5.00;1.98;;;2.80;99.90;;;;;;469523;252;27526;-71
2024/04/21 02:37:37;;;;;;;2.55;1.95;;;2.90;99.90;;;;;;469517;252;27467;-71
2024/04/21 02:39:38;;;;;;;4.40;2.10;;;2.90;99.90;;;;;;469512;252;28796;-72
2024/04/21 02:41:40;;;;;;;6.65;2.20;;;3.00;99.90;;;;;;469517;252;27875;-71
2024/04/21 02:43:41;;;;;;;5.45;2.50;;;2.90;99.90;;;;;;469509;252;28122;-72
2024/04/21 02:45:42;;;;;;;8.85;2.50;;;2.90;99.90;;;;;;469512;252;27877;-71
2024/04/21 02:47:43;;;;;;;9.43;2.60;;;2.80;99.90;;;;;;469541;252;27623;-71
2024/04/21 02:49:46;;;;;;;5.90;2.33;;;2.80;99.90;;;;;;469541;252;27470;-72
2024/04/21 02:51:46;;;;;;;4.15;2.40;;;2.80;99.90;;;;;;469431;253;27546;-72
2024/04/21 02:53:47;;;;;;;4.90;2.80;;;2.80;99.90;;;;;;469514;252;27562;-71
2024/04/21 02:55:48;;;;;;;5.70;3.10;;;2.80;99.90;;;;;;469523;251;27471;-70
2024/04/21 02:57:50;;;;;;;10.00;2.97;;;2.80;99.90;;;;;;469498;252;27573;-71
2024/04/21 02:59:51;;;;;;;9.98;3.08;;;2.80;99.90;;;;;;469551;252;27470;-71
2024/04/21 03:01:52;;;;;;;5.47;3.10;;;2.80;99.90;;;;;;469530;252;27444;-71
2024/04/21 03:03:53;;;;;;;6.68;3.95;;;2.80;99.90;;;;;;469534;252;27467;-71
2024/04/21 03:05:55;;;;;;;8.35;3.45;;;2.70;99.90;;;;;;469522;252;27429;-71
2024/04/21 03:07:56;;;;;;;8.52;3.28;;;2.70;99.90;;;;;;469502;252;28101;-71
2024/04/21 03:09:57;;;;;;;7.47;3.17;;;2.80;99.90;;;;;;469523;252;27956;-72
2024/04/21 03:11:58;;;;;;;8.50;3.55;;;2.80;99.90;;;;;;469522;252;28989;-71
2024/04/21 03:14:00;;;;;;;8.80;3.72;;;2.80;99.90;;;;;;469509;252;27462;-71
2024/04/21 03:16:01;;;;;;;9.20;3.12;;;2.90;99.90;;;;;;469499;252;27435;-71
2024/04/21 03:18:02;;;;;;;5.80;3.28;;;2.90;99.90;;;;;;469555;252;27513;-71
2024/04/21 03:20:03;;;;;;;7.87;3.35;;;2.90;99.90;;;;;;469542;252;27454;-71
2024/04/21 03:22:05;;;;;;;6.15;3.55;;;2.90;99.90;;;;;;469522;252;27483;-71
2024/04/21 03:24:06;;;;;;;11.85;3.58;;;2.90;99.90;;;;;;469534;252;27501;-71
2024/04/21 03:26:07;;;;;;;7.53;3.70;;;2.90;99.90;;;;;;469532;252;27817;-73
2024/04/21 03:28:08;;;;;;;12.20;3.78;;;2.90;99.90;;;;;;469547;252;27434;-71
2024/04/21 03:30:10;;;;;;;9.73;4.12;;;2.90;99.90;;;;;;469565;252;27458;-71
2024/04/21 03:32:11;;;;;;;6.80;3.55;;;2.90;99.90;;;;;;469563;252;27429;-71
2024/04/21 03:34:12;;;;;;;4.12;3.28;;;2.90;99.90;;;;;;469540;252;28045;-71
2024/04/21 03:36:13;;;;;;;8.43;4.03;;;2.90;99.90;;;;;;469554;252;27946;-72
2024/04/21 03:38:15;;;;;;;6.37;5.45;;;2.90;99.90;;;;;;469536;252;29089;-71
2024/04/21 03:40:16;;;;;;;9.20;3.50;;;3.00;99.90;;;;;;469578;252;27475;-71
2024/04/21 03:42:17;;;;;;;8.93;4.00;;;3.00;99.90;;;;;;469547;252;27451;-71
2024/04/21 03:44:18;;;;;;;5.50;4.28;;;3.00;99.90;;;;;;469527;252;27439;-71
2024/04/21 03:46:20;;;;;;;6.60;4.32;;;3.00;99.90;;;;;;469531;252;27578;-71
2024/04/21 03:48:21;;;;;;;8.80;3.75;;;3.00;99.90;;;;;;469553;252;27594;-71
2024/04/21 03:50:22;;;;;;;9.20;4.20;;;3.00;99.90;;;;;;469480;252;27503;-71
2024/04/21 03:52:23;;;;;;;10.70;4.40;;;3.00;99.90;;;;;;469501;252;27447;-72
2024/04/21 03:54:25;;;;;;;11.50;4.10;;;3.00;99.90;;;;;;469530;252;27447;-71
2024/04/21 03:56:26;;;;;;;10.77;4.53;;;3.00;99.90;;;;;;469513;252;27459;-71
2024/04/21 03:58:27;;;;;;;11.00;4.97;;;3.00;99.90;;;;;;469523;252;27940;-71
2024/04/21 04:00:28;;;;;;;6.75;4.45;;;3.00;99.90;;;;;;469530;252;27955;-71
2024/04/21 04:02:30;;;;;;;6.18;4.20;;;3.10;99.90;;;;;;469548;252;28032;-72
2024/04/21 04:04:31;;;;;;;14.68;4.62;;;3.00;99.90;;;;;;469518;252;29064;-71
2024/04/21 04:06:32;;;;;;;10.68;4.43;;;3.00;99.90;;;;;;469542;252;27443;-71
2024/04/21 04:08:33;;;;;;;12.27;4.50;;;2.90;99.90;;;;;;469571;252;27515;-71
2024/04/21 04:10:35;;;;;;;9.00;4.22;;;2.90;99.90;;;;;;469520;252;27450;-71
2024/04/21 04:12:41;;;;;;;10.45;4.85;;;2.90;99.90;;;;;;469547;252;27482;-72
2024/04/21 04:14:37;;;;;;;10.43;4.30;;;2.90;99.90;;;;;;469178;253;27493;-71
2024/04/21 04:16:38;;;;;;;8.15;4.72;;;2.90;99.90;;;;;;469511;252;27474;-71
2024/04/21 04:18:40;;;;;;;8.65;4.62;;;3.00;99.90;;;;;;469542;252;27502;-71
2024/04/21 04:20:41;;;;;;;24.65;4.82;;;2.90;99.90;;;;;;469542;252;27495;-71
2024/04/21 04:22:42;;;;;;;6.25;4.30;;;2.90;99.90;;;;;;469517;252;28065;-71
2024/04/21 04:24:43;;;;;;;19.00;4.35;;;2.90;99.90;;;;;;469551;252;27900;-72
2024/04/21 04:26:45;;;;;;;9.55;5.75;;;2.90;99.90;;;;;;469528;252;27936;-71
2024/04/21 04:28:46;;;;;;;12.90;4.05;;;3.00;99.90;;;;;;469541;252;27542;-72
2024/04/21 04:30:47;;;;;;;14.20;4.40;;;3.00;99.90;;;;;;469455;253;27463;-71
2024/04/21 04:32:48;;;;;;;6.32;4.57;;;2.90;99.90;;;;;;469473;253;27459;-72
2024/04/21 04:34:51;;;;;;;10.98;5.12;;;2.90;99.90;;;;;;469527;252;27419;-72
2024/04/21 04:36:51;;;;;;;11.73;4.97;;;2.90;99.90;;;;;;469483;252;27468;-71
2024/04/21 04:38:52;;;;;;;10.48;4.43;;;3.00;99.90;;;;;;469543;252;27467;-72
2024/04/21 04:40:53;;;;;;;9.15;4.85;;;2.90;99.90;;;;;;469545;252;27418;-71
2024/04/21 04:42:56;;;;;;;7.62;5.22;;;2.90;99.90;;;;;;469529;252;27550;-71
2024/04/21 04:44:56;;;;;;;16.37;5.05;;;2.90;99.90;;;;;;469469;252;28638;-71
2024/04/21 04:46:57;;;;;;;14.35;5.28;;;2.90;99.90;;;;;;469543;252;28009;-71
2024/04/21 04:48:58;;;;;;;12.20;4.80;;;2.90;99.90;;;;;;469564;252;27939;-71
2024/04/21 04:51:00;;;;;;;10.13;5.10;;;2.90;99.90;;;;;;469536;252;27414;-71
2024/04/21 04:53:01;;;;;;;14.90;5.53;;;2.90;99.90;;;;;;469514;252;27454;-71
2024/04/21 04:55:02;;;;;;;12.23;5.20;;;2.80;99.90;;;;;;469538;252;27454;-71
2024/04/21 04:57:04;;;;;;;18.02;6.05;;;2.90;99.90;;;;;;469533;252;27439;-71
2024/04/21 04:59:05;;;;;;;12.48;6.25;;;2.90;99.90;;;;;;469539;252;27462;-71
2024/04/21 05:01:06;;;;;;;11.55;4.95;;;2.90;99.90;;;;;;469541;252;27507;-72
2024/04/21 05:03:07;;;;;;;16.55;6.30;;;2.90;99.90;;;;;;469527;252;27538;-71
2024/04/21 05:05:09;;;;;;;16.73;5.57;;;2.90;99.90;;;;;;469571;252;27930;-73
2024/04/21 05:07:10;;;;;;;6.03;3.83;;;2.90;99.90;;;;;;469542;252;27882;-71
2024/04/21 05:09:11;;;;;;;9.38;4.47;;;2.90;99.90;;;;;;469569;252;28123;-71
2024/04/21 05:11:12;;;;;;;12.02;4.65;;;2.90;99.90;;;;;;469562;252;27415;-71
2024/04/21 05:13:14;;;;;;;7.75;3.80;;;2.80;99.90;;;;;;469565;252;27609;-71
2024/04/21 05:15:15;;;;;;;8.90;4.15;;;2.80;99.90;;;;;;469577;252;27567;-72
2024/04/21 05:17:16;;;;;;;9.90;3.90;;;2.90;99.90;;;;;;469512;252;27423;-71
2024/04/21 05:19:17;;;;;;;7.32;3.85;;;2.90;99.90;;;;;;469533;252;27574;-72
2024/04/21 05:21:19;;;;;;;13.13;4.62;;;2.90;99.90;;;;;;469537;252;27452;-71
2024/04/21 05:23:20;;;;;;;5.18;3.90;;;2.90;99.90;;;;;;469545;252;27891;-71
2024/04/21 05:25:21;;;;;;;7.32;3.97;;;2.90;99.90;;;;;;469546;252;27462;-72
2024/04/21 05:27:22;;;;;;;10.27;3.87;;;2.90;99.90;;;;;;469547;252;27503;-71
2024/04/21 05:29:24;;;;;;;9.40;3.53;;;2.90;99.90;;;;;;469512;252;27910;-71
2024/04/21 05:31:25;;;;;;;10.13;3.60;;;2.90;99.90;;;;;;469528;252;28038;-73
2024/04/21 05:33:26;;;;;;;10.77;4.05;;;2.90;99.90;;;;;;469562;252;27886;-71
2024/04/21 05:35:27;;;;;;;6.68;3.35;;;2.90;99.90;;;;;;469539;252;27476;-72
2024/04/21 05:37:29;;;;;;;10.32;3.67;;;2.90;99.90;;;;;;469543;252;27431;-71
2024/04/21 05:39:30;;;;;;;6.28;3.92;;;2.90;99.90;;;;;;469539;252;27531;-71
2024/04/21 05:41:31;;;;;;;4.75;3.45;;;2.90;99.90;;;;;;469566;252;27459;-73
2024/04/21 05:43:32;;;;;;;6.82;3.35;;;2.90;99.90;;;;;;469513;252;27431;-71
2024/04/21 05:45:34;;;;;;;5.85;3.50;;;3.00;99.90;;;;;;469521;252;27467;-71
2024/04/21 05:47:35;;;;;;;7.20;3.20;;;3.00;99.90;;;;;;469518;252;27423;-72
2024/04/21 05:49:36;;;;;;;10.20;3.28;;;3.00;99.90;;;;;;469522;252;27423;-71
2024/04/21 05:51:37;;;;;;;6.53;3.33;;;2.90;99.90;;;;;;469550;252;27474;-72
2024/04/21 05:53:39;;;;;;;8.05;3.15;;;2.70;99.90;;;;;;469534;252;27915;-72
2024/04/21 05:55:40;;;;;;;7.65;3.00;;;2.50;99.90;;;;;;469544;252;28041;-72
2024/04/21 05:57:41;;;;;;;6.97;3.00;;;2.30;99.90;;;;;;469526;252;28121;-71
2024/04/21 05:59:42;;;;;;;6.15;2.50;;;2.20;99.90;;;;;;469537;252;27878;-71
2024/04/21 06:01:44;;;;;;;6.57;2.65;;;2.10;99.90;;;;;;469522;252;27549;-71
2024/04/21 06:03:45;;;;;;;8.05;3.42;;;2.00;99.90;;;;;;469508;252;27491;-71
2024/04/21 06:05:46;;;;;;;2.60;2.30;;;2.10;99.90;;;;;;469502;252;27522;-71
2024/04/21 06:07:47;;;;;;;6.07;2.58;;;1.90;99.90;;;;;;469555;252;27535;-71
2024/04/21 06:09:49;;;;;;;2.30;2.20;;;1.80;99.90;;;;;;469555;252;27438;-72
2024/04/21 06:11:52;;;;;;;5.15;2.10;;;1.80;99.90;;;;;;469546;252;27562;-71
2024/04/21 06:13:51;;;;;;;5.18;2.40;;;1.90;99.90;;;;;;469382;253;27500;-71
2024/04/21 06:15:52;;;;;;;2.47;2.25;;;1.90;99.90;;;;;;469513;252;27467;-72
2024/04/21 06:17:54;;;;;;;5.22;2.40;;;1.80;99.90;;;;;;469518;252;27466;-72
2024/04/21 06:19:55;;;;;;;5.00;2.70;;;1.90;99.90;;;;;;469501;252;27420;-71
2024/04/21 06:21:56;;;;;;;7.50;2.78;;;2.10;99.90;;;;;;469500;252;27994;-72
2024/04/21 06:23:57;;;;;;;4.47;2.70;;;2.10;99.90;;;;;;469505;252;29080;-71
2024/04/21 06:25:59;;;;;;;8.60;3.12;;;2.00;99.90;;;;;;469544;252;27885;-72
2024/04/21 06:28:00;;;;;;;4.90;3.40;;;2.00;99.90;;;;;;469544;252;27948;-72
2024/04/21 06:30:01;;;;;;;5.40;3.10;;;2.20;99.90;;;;;;469533;252;27416;-72
2024/04/21 06:32:03;;;;;;;6.70;4.03;;;2.20;99.90;;;;;;469522;252;27561;-71
2024/04/21 06:34:04;;;;;;;5.37;3.30;;;2.30;99.90;;;;;;469477;252;27455;-71
2024/04/21 06:36:05;;;;;;;8.40;3.20;;;2.50;99.90;;;;;;469543;252;27411;-72
2024/04/21 06:38:06;;;;;;;4.50;3.60;;;2.60;99.90;;;;;;469499;252;27545;-72
2024/04/21 06:40:07;;;;;;;7.18;3.22;;;2.60;99.90;;;;;;469509;252;27482;-71
2024/04/21 06:42:12;;;;;;;8.05;3.67;;;2.70;99.90;;;;;;469508;252;27462;-71
2024/04/21 06:44:13;;;;;;;6.25;3.10;;;2.80;99.90;;;;;;469567;252;27423;-71
2024/04/21 06:46:14;;;;;;;11.40;3.65;;;2.90;99.90;;;;;;469575;252;27454;-71
2024/04/21 06:48:15;;;;;;;5.05;3.53;;;3.00;99.90;;;;;;469557;252;27423;-71
2024/04/21 06:50:17;;;;;;;5.50;3.80;;;3.10;99.90;;;;;;469519;252;27477;-72
2024/04/21 06:52:20;;;;;;;4.35;2.83;;;3.10;99.90;;;;;;469569;252;27779;-73
2024/04/21 06:54:19;;;;;;;7.15;3.55;;;3.10;99.90;;;;;;469427;253;27422;-72
2024/04/21 06:56:20;;;;;;;9.70;3.70;;;3.00;99.90;;;;;;469568;252;27563;-72
2024/04/21 06:58:22;;;;;;;5.50;3.05;;;2.90;99.90;;;;;;469509;252;27958;-71
2024/04/21 07:00:23;;;;;;;7.10;3.45;;;2.90;99.90;;;;;;469529;252;27933;-71
2024/04/21 07:02:24;;;;;;;2.67;2.42;;;2.70;99.90;;;;;;469497;252;27970;-72
2024/04/21 07:04:25;;;;;;;12.20;3.15;;;2.80;99.90;;;;;;469523;252;27865;-71
2024/04/21 07:06:27;;;;;;;10.20;2.95;;;2.90;99.90;;;;;;469512;252;27452;-72
2024/04/21 07:08:28;;;;;;;4.62;2.25;;;2.90;99.90;;;;;;469506;252;27470;-71
2024/04/21 07:10:29;;;;;;;5.75;2.62;;;3.00;99.90;;;;;;469513;252;27431;-71
2024/04/21 07:12:30;;;;;;;2.90;2.60;;;3.00;99.90;;;;;;469528;252;27455;-72
2024/04/21 07:14:32;;;;;;;3.90;3.22;;;3.40;99.90;;;;;;469567;252;27529;-72
2024/04/21 07:16:33;;;;;;;4.32;2.53;;;3.60;99.90;;;;;;469558;252;27475;-71
2024/04/21 07:18:35;;;;;;;4.57;3.12;;;3.80;99.90;;;;;;469565;252;27470;-71
2024/04/21 07:20:36;;;;;;;6.20;2.42;;;3.70;99.90;;;;;;469558;252;27419;-72
2024/04/21 07:22:37;;;;;;;6.70;2.80;;;3.60;99.90;;;;;;469541;252;28053;-72
2024/04/21 07:24:38;;;;;;;6.35;3.12;;;3.70;99.90;;;;;;469535;252;27880;-71
2024/04/21 07:26:39;;;;;;;5.00;3.20;;;3.60;99.90;;;;;;469548;252;27941;-71
2024/04/21 07:28:40;;;;;;;5.40;2.92;;;3.50;99.90;;;;;;469565;252;27446;-72
2024/04/21 07:30:42;;;;;;;7.07;3.15;;;3.70;99.90;;;;;;469547;252;27531;-72
2024/04/21 07:32:43;;;;;;;6.22;3.10;;;3.90;99.90;;;;;;469551;252;27447;-72
2024/04/21 07:34:44;;;;;;;7.12;2.70;;;4.00;99.90;;;;;;469546;252;27426;-72
2024/04/21 07:36:45;;;;;;;5.25;2.42;;;4.00;99.90;;;;;;469559;252;27462;-71
2024/04/21 07:38:47;;;;;;;6.28;3.12;;;4.00;99.90;;;;;;469567;252;27563;-72
2024/04/21 07:40:48;;;;;;;4.72;3.03;;;3.90;99.90;;;;;;469580;252;27486;-72
2024/04/21 07:42:49;;;;;;;4.57;2.90;;;3.90;99.90;;;;;;469560;252;28057;-72
2024/04/21 07:44:50;;;;;;;6.12;2.90;;;4.20;99.90;;;;;;469581;252;27869;-71
2024/04/21 07:46:52;;;;;;;5.20;2.45;;;4.30;99.90;;;;;;469549;252;27420;-71
2024/04/21 07:48:53;;;;;;;3.03;2.70;;;4.30;99.90;;;;;;469588;252;27525;-73
2024/04/21 07:50:54;;;;;;;4.10;2.80;;;4.20;99.90;;;;;;469577;252;27407;-71
2024/04/21 07:52:55;;;;;;;5.32;2.78;;;4.10;99.90;;;;;;469565;252;27569;-72
2024/04/21 07:54:57;;;;;;;6.10;2.60;;;4.10;99.90;;;;;;469576;252;27462;-72
2024/04/21 07:56:58;;;;;;;7.87;3.25;;;4.00;99.90;;;;;;469602;252;27427;-71
2024/04/21 07:58:59;;;;;;;7.87;2.78;;;4.00;99.90;;;;;;469579;252;27468;-72
2024/04/21 08:01:00;;;;;;;3.45;2.53;;;3.80;99.90;;;;;;469596;252;27895;-71
2024/04/21 08:03:02;;;;;;;10.90;3.35;;;3.80;99.90;;;;;;469524;252;27936;-72
2024/04/21 08:05:03;;;;;;;6.25;3.22;;;3.90;99.90;;;;;;469581;252;27582;-72
2024/04/21 08:07:04;;;;;;;8.55;3.25;;;3.70;99.90;;;;;;469555;252;27427;-71
2024/04/21 08:09:06;;;;;;;5.30;2.80;;;3.70;99.90;;;;;;469546;252;27466;-72
2024/04/21 08:11:07;;;;;;;7.65;2.87;;;3.90;99.90;;;;;;469561;252;27468;-72
2024/04/21 08:13:08;;;;;;;6.45;2.75;;;3.90;99.90;;;;;;469549;252;27475;-72
2024/04/21 08:15:09;;;;;;;4.95;3.00;;;3.80;99.90;;;;;;469566;252;27435;-72
2024/04/21 08:17:11;;;;;;;7.95;3.30;;;3.90;99.90;;;;;;469518;252;27530;-71
2024/04/21 08:19:12;;;;;;;5.40;2.75;;;4.20;99.90;;;;;;469524;251;27977;-71
2024/04/21 08:21:13;;;;;;;5.07;2.60;;;4.10;99.90;;;;;;469545;252;28962;-71
2024/04/21 08:23:16;;;;;;;3.90;2.80;;;3.90;99.90;;;;;;469574;252;27490;-72
2024/04/21 08:25:16;;;;;;;8.88;2.53;;;4.20;99.90;;;;;;469452;252;27460;-72
2024/04/21 08:27:17;;;;;;;7.57;3.00;;;4.30;99.90;;;;;;469559;252;27530;-72
2024/04/21 08:29:18;;;;;;;7.00;2.42;;;4.20;99.90;;;;;;469528;251;27530;-71
2024/04/21 08:31:19;;;;;;;9.32;2.50;;;4.30;99.90;;;;;;469539;252;27906;-72
2024/04/21 08:33:21;;;;;;;7.62;2.67;;;4.20;99.90;;;;;;469557;252;27416;-72
2024/04/21 08:35:22;;;;;;;12.68;2.83;;;4.30;99.90;;;;;;469539;252;27998;-72
2024/04/21 08:37:23;;;;;;;4.07;2.60;;;4.10;99.90;;;;;;469554;252;27894;-72
2024/04/21 08:39:24;;;;;;;8.75;2.90;;;4.10;99.90;;;;;;469532;252;27448;-72
2024/04/21 08:41:26;;;;;;;6.57;2.60;;;4.20;99.90;;;;;;469485;252;27478;-73
2024/04/21 08:43:27;;;;;;;11.25;2.87;;;4.20;99.90;;;;;;469433;252;27537;-72
2024/04/21 08:45:28;;;;;;;4.10;2.65;;;4.30;99.90;;;;;;469422;252;27495;-72
2024/04/21 08:47:29;;;;;;;8.02;2.72;;;4.20;99.90;;;;;;469429;252;27415;-71
2024/04/21 08:49:31;;;;;;;8.93;2.65;;;4.30;99.90;;;;;;469571;251;27530;-71
2024/04/21 08:51:32;;;;;;;6.60;2.50;;;4.70;99.90;;;;;;469531;252;27922;-72
2024/04/21 08:53:33;;;;;;;6.43;2.22;;;5.00;99.90;;;;;;469534;252;27882;-72
2024/04/21 08:55:36;;;;;;;4.70;2.00;;;5.00;99.90;;;;;;469499;252;28025;-71
2024/04/21 08:57:36;;;;;;;8.25;2.45;;;4.90;99.90;;;;;;469462;253;27554;-72
2024/04/21 08:59:37;;;;;;;10.10;2.55;;;4.90;99.90;;;;;;469550;252;27455;-72
2024/04/21 09:01:38;;;;;;;5.00;2.15;;;5.00;99.90;;;;;;469554;252;27454;-71
2024/04/21 09:03:39;;;;;;;7.57;2.50;;;5.20;99.90;;;;;;469421;253;27411;-72
2024/04/21 09:05:44;;;;;;;2.65;2.03;;;5.00;99.90;;;;;;469553;252;27470;-72
2024/04/21 09:07:42;;;;;;;8.60;2.78;;;5.40;99.90;;;;;;469438;252;27930;-73
2024/04/21 09:09:43;;;;;;;5.95;2.25;;;5.50;99.80;;;;;;469549;252;27994;-71
2024/04/21 09:11:44;;;;;;;5.90;2.58;;;5.50;99.80;;;;;;469550;252;27546;-72
2024/04/21 09:13:46;;;;;;;4.40;2.58;;;5.70;99.90;;;;;;469551;252;27560;-71
2024/04/21 09:15:47;;;;;;;4.65;2.33;;;5.50;99.90;;;;;;469553;252;27463;-72
2024/04/21 09:17:48;;;;;;;4.82;2.70;;;5.20;99.90;;;;;;469552;252;27545;-72
2024/04/21 09:19:49;;;;;;;2.83;2.35;;;5.20;99.90;;;;;;469555;252;27953;-71
2024/04/21 09:21:51;;;;;;;7.68;2.30;;;5.10;99.90;;;;;;469565;252;27945;-72
2024/04/21 09:23:52;;;;;;;5.30;2.12;;;4.90;99.90;;;;;;469574;252;27542;-72
2024/04/21 09:25:53;;;;;;;9.02;2.53;;;4.70;99.60;;;;;;469553;252;27427;-72
2024/04/21 09:27:55;;;;;;;6.18;2.20;;;4.60;99.40;;;;;;469576;252;27474;-72
2024/04/21 09:29:58;;;;;;;9.73;2.40;;;4.80;99.90;;;;;;469546;252;27426;-71
2024/04/21 09:32:00;;;;;;;7.93;2.65;;;4.70;99.90;;;;;;469550;252;27415;-72
2024/04/21 09:34:01;;;;;;;4.30;2.20;;;5.00;99.90;;;;;;469582;252;27482;-72
2024/04/21 09:36:02;;;;;;;4.37;2.30;;;5.30;99.90;;;;;;469573;252;27473;-72
2024/04/21 09:38:04;;;;;;;4.87;1.80;;;5.50;99.90;;;;;;469567;252;27510;-71
2024/04/21 09:40:05;;;;;;;4.72;2.22;;;5.50;99.60;;;;;;469556;252;27472;-72
2024/04/21 09:42:08;;;;;;;7.87;1.98;;;;;;;;;;469581;252;27978;-71
2024/04/21 09:44:09;;;;;;;3.55;1.98;;;5.70;97.70;;;;;;469551;252;26318;-71
2024/04/21 09:46:10;;;;;;;3.90;1.83;;;5.70;97.70;;;;;;469561;252;27796;-72
2024/04/21 09:48:12;;;;;;;12.17;2.70;;;6.00;99.20;;;;;;469573;252;27435;-71
2024/04/21 09:50:13;;;;;;;7.80;2.37;;;6.10;98.90;;;;;;469558;252;28076;-72
2024/04/21 09:52:14;;;;;;;3.40;1.90;;;6.10;98.10;;;;;;469539;252;28869;-72
2024/04/21 09:54:19;;;;;;;4.77;2.27;;;5.90;97.50;;;;;;469552;252;28017;-72
2024/04/21 09:56:17;;;;;;;3.50;2.53;;;5.90;98.30;;;;;;469378;253;28972;-73
2024/04/21 09:58:18;;;;;;;4.70;2.30;;;5.60;98.00;;;;;;469538;251;29308;-71
2024/04/21 10:00:19;;;;;;;3.42;1.98;;;5.10;99.40;;;;;;469514;252;28816;-71
2024/04/21 10:02:20;;;;;;;3.78;1.98;;;5.10;99.70;;;;;;469551;252;27420;-71
2024/04/21 10:04:22;;;;;;;5.60;2.28;;;5.10;99.10;;;;;;469536;252;27578;-72
2024/04/21 10:06:23;;;;;;;6.70;2.22;;;5.00;99.80;;;;;;469551;252;27459;-72
2024/04/21 10:08:24;;;;;;;6.30;1.90;;;5.50;99.90;;;;;;469552;252;27422;-72
2024/04/21 10:10:25;;;;;;;3.47;2.10;;;5.80;99.10;;;;;;469551;252;27952;-71
2024/04/21 10:12:27;;;;;;;4.20;1.80;;;6.10;97.90;;;;;;469548;252;28105;-71
2024/04/21 10:14:28;;;;;;;5.43;2.30;;;6.30;99.70;;;;;;469548;252;27540;-72
2024/04/21 10:16:30;;;;;;;4.97;1.73;;;6.40;97.90;;;;;;469546;252;28152;-72
2024/04/21 10:18:30;;;;;;;5.50;1.90;;;6.60;98.80;;;;;;469524;252;27899;-71
2024/04/21 10:20:32;;;;;;;3.27;1.70;;;6.40;96.50;;;;;;469546;252;27820;-71
2024/04/21 10:22:33;;;;;;;7.60;2.17;;;5.90;95.00;;;;;;469510;252;28433;-71
2024/04/21 10:24:34;;;;;;;4.03;2.00;;;5.70;95.40;;;;;;469538;252;28211;-71
2024/04/21 10:26:35;;;;;;;5.22;2.17;;;5.50;96.50;;;;;;469510;252;28164;-71
2024/04/21 10:28:37;;;;;;;7.40;1.85;;;5.40;96.30;;;;;;469502;252;27423;-72
2024/04/21 10:30:38;;;;;;;5.28;1.77;;;5.50;96.70;;;;;;469544;252;28024;-71
2024/04/21 10:32:39;;;;;;;6.10;1.67;;;5.40;96.30;;;;;;469561;252;27949;-71
2024/04/21 10:34:41;;;;;;;2.37;1.40;;;5.50;95.60;;;;;;469547;252;27411;-71
2024/04/21 10:36:42;;;;;;;2.20;1.50;;;5.80;96.50;;;;;;469546;252;27466;-71
2024/04/21 10:38:43;;;;;;;2.75;2.08;;;6.00;93.70;;;;;;469540;252;27890;-73